Time;durP1;ratioP1;P1;durP2;ratioP2;P2;SDS_P1;SDS_P2;PMS_P1;PMS_P2;Temp;Humidity;BMP_temperature;BMP_pressure;BME280_temperature;BME280_humidity;BME280_pressure;Samples;Min_cycle;Max_cycle;Signal;HPM_P1;HPM_P2
2022/02/07 00:01:18;;;;;;;11.20;7.07;;;;;;;;;;6369659;27;20111;-77
2022/02/07 00:04:27;;;;;;;11.77;7.25;;;;;;;;;;6368456;27;20046;-77
2022/02/07 00:07:30;;;;;;;13.38;7.75;;;;;;;;;;6366890;27;20043;-76
2022/02/07 00:10:35;;;;;;;12.52;7.07;;;;;;;;;;6368662;27;20493;-77
2022/02/07 00:13:38;;;;;;;12.23;7.63;;;;;;;;;;6370091;27;20125;-78
2022/02/07 00:16:42;;;;;;;12.52;7.28;;;;;;;;;;6366962;27;20299;-77
2022/02/07 00:19:47;;;;;;;16.05;6.78;;;;;;;;;;6367514;27;20055;-76
2022/02/07 00:22:50;;;;;;;15.75;6.72;;;;;;;;;;6367436;27;20092;-76
2022/02/07 00:25:55;;;;;;;13.77;6.88;;;;;;;;;;6367159;27;20434;-76
2022/02/07 00:29:00;;;;;;;11.27;6.80;;;;;;;;;;6366838;27;20051;-76
2022/02/07 00:32:04;;;;;;;11.82;6.25;;;;;;;;;;6368661;27;20605;-76
2022/02/07 00:35:12;;;;;;;11.45;6.90;;;;;;;;;;6367515;27;20493;-77
2022/02/07 00:38:18;;;;;;;13.50;7.47;;;;;;;;;;6366260;27;20098;-77
2022/02/07 00:41:34;;;;;;;14.60;7.15;;;;;;;;;;6367008;27;20051;-76
2022/02/07 00:44:37;;;;;;;13.57;7.80;;;;;;;;;;6366936;27;20428;-77
2022/02/07 00:47:40;;;;;;;13.00;7.32;;;;;;;;;;6366900;27;20039;-76
2022/02/07 00:50:44;;;;;;;13.43;7.07;;;;;;;;;;6366474;27;20375;-76
2022/02/07 00:53:48;;;;;;;13.50;7.35;;;;;;;;;;6366563;27;20550;-77
2022/02/07 00:56:57;;;;;;;12.65;7.20;;;;;;;;;;6366879;27;20055;-76
2022/02/07 01:00:03;;;;;;;13.23;7.32;;;;;;;;;;6366299;27;20092;-75
2022/02/07 01:03:09;;;;;;;13.25;7.50;;;;;;;;;;6366590;27;20505;-75
2022/02/07 01:06:13;;;;;;;13.50;7.40;;;;;;;;;;6366105;27;20047;-76
2022/02/07 01:09:20;;;;;;;14.70;7.65;;;;;;;;;;6366415;27;20062;-76
2022/02/07 01:12:44;;;;;;;13.63;7.72;;;;;;;;;;6365830;28;20421;-76
2022/02/07 01:16:06;;;;;;;11.70;7.47;;;;;;;;;;6366676;28;20063;-76
2022/02/07 01:23:12;;;;;;;13.57;7.60;;;;;;;;;;6366681;28;20070;-77
2022/02/07 01:50:40;;;;;;;15.07;7.88;;;;;;;;;;6367233;27;20183;-76
2022/02/07 01:54:06;;;;;;;15.15;7.82;;;;;;;;;;6366129;28;20047;-77
2022/02/07 01:57:13;;;;;;;14.07;8.00;;;;;;;;;;6365831;28;20055;-75
2022/02/07 02:00:26;;;;;;;15.15;8.52;;;;;;;;;;6365636;28;20054;-75
2022/02/07 02:03:34;;;;;;;14.48;8.13;;;;;;;;;;6365766;28;20462;-74
2022/02/07 02:06:38;;;;;;;13.82;7.78;;;;;;;;;;6366248;28;20051;-75
2022/02/07 02:09:57;;;;;;;14.23;8.38;;;;;;;;;;6365760;28;20055;-76
2022/02/07 02:13:10;;;;;;;16.33;8.65;;;;;;;;;;6365385;28;20074;-77
2022/02/07 02:16:20;;;;;;;16.75;8.88;;;;;;;;;;6366405;27;20043;-76
2022/02/07 02:20:01;;;;;;;17.80;8.93;;;;;;;;;;6370726;27;20047;-75
2022/02/07 02:33:48;;;;;;;17.83;10.10;;;;;;;;;;6370029;27;20050;-75
2022/02/07 02:37:08;;;;;;;19.50;10.75;;;;;;;;;;6370203;27;20401;-73
2022/02/07 02:46:55;;;;;;;17.90;10.43;;;;;;;;;;6360194;27;20059;-74
2022/02/07 02:50:06;;;;;;;20.65;10.15;;;;;;;;;;6369767;27;20043;-75
2022/02/07 02:53:13;;;;;;;19.67;9.95;;;;;;;;;;6369246;27;20505;-75
2022/02/07 02:56:20;;;;;;;22.60;11.23;;;;;;;;;;6369457;27;20050;-75
2022/02/07 02:59:27;;;;;;;19.90;10.50;;;;;;;;;;6369169;27;20039;-77
2022/02/07 03:02:31;;;;;;;22.95;10.43;;;;;;;;;;6369665;27;20161;-75
2022/02/07 03:05:34;;;;;;;20.58;10.07;;;;;;;;;;6368582;27;20043;-75
2022/02/07 03:08:38;;;;;;;19.75;10.57;;;;;;;;;;6370283;27;20047;-75
2022/02/07 03:11:43;;;;;;;;;;;;;;;;;;6369967;27;20066;-74
2022/02/07 03:14:50;;;;;;;20.30;10.15;;;;;;;;;;6368683;27;19923;-76
2022/02/07 03:17:52;;;;;;;19.00;10.05;;;;;;;;;;6368801;27;20050;-75
2022/02/07 03:20:56;;;;;;;20.60;11.20;;;;;;;;;;6368992;27;20503;-75
2022/02/07 03:24:00;;;;;;;20.08;10.75;;;;;;;;;;6370465;27;20043;-74
2022/02/07 03:27:10;;;;;;;21.83;10.50;;;;;;;;;;6367741;27;20050;-77
2022/02/07 03:30:20;;;;;;;21.95;11.02;;;;;;;;;;6368564;27;20549;-76
2022/02/07 03:33:27;;;;;;;19.67;10.63;;;;;;;;;;6368322;27;20161;-76
2022/02/07 03:36:31;;;;;;;20.25;11.60;;;;;;;;;;6367866;27;20374;-74
2022/02/07 03:39:37;;;;;;;21.13;11.02;;;;;;;;;;6368333;27;20050;-74
2022/02/07 03:42:40;;;;;;;24.13;11.98;;;;;;;;;;6368648;27;20047;-74
2022/02/07 03:45:47;;;;;;;24.45;10.68;;;;;;;;;;6368633;27;20047;-73
2022/02/07 03:48:53;;;;;;;21.48;11.73;;;;;;;;;;6369091;27;20394;-75
2022/02/07 03:51:59;;;;;;;18.13;10.65;;;;;;;;;;6368058;27;20047;-75
2022/02/07 03:55:06;;;;;;;21.80;10.90;;;;;;;;;;6369716;27;20398;-74
2022/02/07 03:58:09;;;;;;;17.25;10.52;;;;;;;;;;6367171;27;20062;-75
2022/02/07 04:01:18;;;;;;;25.25;11.65;;;;;;;;;;6367888;27;20400;-76
2022/02/07 04:04:24;;;;;;;20.25;10.57;;;;;;;;;;6367862;27;20485;-75
2022/02/07 04:07:28;;;;;;;22.90;11.00;;;;;;;;;;6369402;27;20063;-75
2022/02/07 04:10:33;;;;;;;20.35;11.38;;;;;;;;;;6368389;27;20051;-74
2022/02/07 04:13:48;;;;;;;21.30;11.48;;;;;;;;;;6367541;27;20405;-74
2022/02/07 04:16:53;;;;;;;20.27;10.68;;;;;;;;;;6367625;27;20058;-74
2022/02/07 04:20:06;;;;;;;20.15;11.00;;;;;;;;;;6367054;27;20058;-74
2022/02/07 04:23:19;;;;;;;19.92;11.13;;;;;;;;;;6366896;27;20477;-74
2022/02/07 04:26:42;;;;;;;20.40;11.00;;;;;;;;;;6367249;27;20465;-76
2022/02/07 04:29:48;;;;;;;19.10;11.27;;;;;;;;;;6367443;27;20068;-75
2022/02/07 04:32:59;;;;;;;23.25;12.13;;;;;;;;;;6366733;27;20434;-75
2022/02/07 04:36:03;;;;;;;22.85;12.25;;;;;;;;;;6366910;27;20043;-75
2022/02/07 04:39:08;;;;;;;24.60;13.02;;;;;;;;;;6366425;27;20054;-75
2022/02/07 04:42:13;;;;;;;24.73;13.13;;;;;;;;;;6367180;27;20401;-74
2022/02/07 04:45:46;;;;;;;23.52;12.88;;;;;;;;;;6366099;27;20054;-74
2022/02/07 04:52:37;;;;;;;22.83;12.07;;;;;;;;;;6366377;27;20046;-74
2022/02/07 04:55:46;;;;;;;22.13;12.10;;;;;;;;;;6367033;27;20080;-73
2022/02/07 04:59:00;;;;;;;23.90;13.55;;;;;;;;;;6365849;27;20051;-75
2022/02/07 05:02:11;;;;;;;22.25;13.00;;;;;;;;;;6366426;27;20517;-75
2022/02/07 05:05:32;;;;;;;21.73;13.43;;;;;;;;;;6366800;27;20051;-74
2022/02/07 05:15:20;;;;;;;23.38;12.35;;;;;;;;;;6366230;28;20070;-74
2022/02/07 05:18:26;;;;;;;23.20;12.60;;;;;;;;;;6366281;28;20043;-74
2022/02/07 05:22:03;;;;;;;23.25;12.98;;;;;;;;;;6344324;27;20059;-74
2022/02/07 05:25:17;;;;;;;22.83;11.35;;;;;;;;;;6367689;27;20043;-75
2022/02/07 05:28:43;;;;;;;21.20;11.43;;;;;;;;;;6366683;27;20502;-74
2022/02/07 05:32:15;;;;;;;24.05;13.40;;;;;;;;;;6366212;28;20104;-76
2022/02/07 05:35:42;;;;;;;24.23;12.50;;;;;;;;;;6366122;28;20039;-76
2022/02/07 05:39:05;;;;;;;23.70;13.18;;;;;;;;;;6367661;28;20477;-77
2022/02/07 05:42:30;;;;;;;31.08;15.40;;;;;;;;;;6366359;28;20046;-78
2022/02/07 05:45:41;;;;;;;30.85;13.88;;;;;;;;;;6365895;28;20271;-83
2022/02/07 05:49:02;;;;;;;28.27;13.15;;;;;;;;;;6366141;28;20521;-83
2022/02/07 05:52:38;;;;;;;27.23;13.13;;;;;;;;;;6360159;27;20043;-82
2022/02/07 05:55:56;;;;;;;26.95;12.52;;;;;;;;;;6370955;27;20484;-83
2022/02/07 05:59:10;;;;;;;25.73;12.75;;;;;;;;;;6370364;27;20043;-78
2022/02/07 06:02:32;;;;;;;28.45;11.63;;;;;;;;;;6372000;27;20047;-79
2022/02/07 06:05:45;;;;;;;30.55;12.93;;;;;;;;;;6370846;27;20419;-82
2022/02/07 06:08:55;;;;;;;21.42;10.05;;;;;;;;;;6370778;27;20051;-76
2022/02/07 06:12:03;;;;;;;20.27;10.13;;;;;;;;;;6370268;27;20043;-75
2022/02/07 06:15:09;;;;;;;17.63;8.48;;;;;;;;;;6368866;27;20031;-74
2022/02/07 06:18:17;;;;;;;16.63;8.40;;;;;;;;;;6370432;27;20446;-75
2022/02/07 06:21:23;;;;;;;16.25;7.57;;;;;;;;;;6369062;27;20031;-75
2022/02/07 06:24:28;;;;;;;17.92;9.45;;;;;;;;;;6369814;27;20047;-76
2022/02/07 06:27:33;;;;;;;17.35;6.68;;;;;;;;;;6369666;27;20481;-76
2022/02/07 06:30:40;;;;;;;13.57;6.35;;;;;;;;;;6370275;27;20070;-76
2022/02/07 06:33:43;;;;;;;11.27;5.45;;;;;;;;;;6370866;27;20401;-77
2022/02/07 06:36:49;;;;;;;13.23;7.10;;;;;;;;;;6370168;27;20054;-75
2022/02/07 06:39:54;;;;;;;11.13;5.63;;;;;;;;;;6370219;27;20054;-75
2022/02/07 06:43:00;;;;;;;;;;;;;;;;;;6369828;27;20396;-74
2022/02/07 06:46:05;;;;;;;9.07;4.18;;;;;;;;;;6352754;27;19919;-75
2022/02/07 06:49:08;;;;;;;12.68;4.82;;;;;;;;;;6369946;27;20142;-74
2022/02/07 06:52:14;;;;;;;9.85;4.35;;;;;;;;;;6369606;27;20050;-74
2022/02/07 06:55:23;;;;;;;8.50;4.32;;;;;;;;;;6369096;27;20458;-75
2022/02/07 06:58:26;;;;;;;7.55;4.13;;;;;;;;;;6368950;27;20340;-75
2022/02/07 07:01:31;;;;;;;6.38;3.50;;;;;;;;;;6370817;27;20047;-75
2022/02/07 07:04:37;;;;;;;5.00;3.00;;;;;;;;;;6368146;27;20133;-75
2022/02/07 07:07:42;;;;;;;6.53;3.08;;;;;;;;;;6369310;27;20050;-75
2022/02/07 07:10:46;;;;;;;5.82;3.10;;;;;;;;;;6369144;27;20047;-75
2022/02/07 07:13:54;;;;;;;3.42;2.45;;;;;;;;;;6368990;27;20044;-76
2022/02/07 07:17:02;;;;;;;6.07;3.05;;;;;;;;;;6368791;27;20058;-75
2022/02/07 07:20:16;;;;;;;3.47;2.67;;;;;;;;;;6367231;27;20478;-76
2022/02/07 07:23:24;;;;;;;3.67;2.60;;;;;;;;;;6367861;27;20053;-76
2022/02/07 07:26:31;;;;;;;2.97;2.00;;;;;;;;;;6365266;27;20043;-76
2022/02/07 07:29:42;;;;;;;2.67;2.00;;;;;;;;;;6365466;27;20099;-75
2022/02/07 07:32:47;;;;;;;4.68;2.20;;;;;;;;;;6365732;27;20035;-75
2022/02/07 07:35:50;;;;;;;3.13;2.22;;;;;;;;;;6367506;27;20075;-75
2022/02/07 07:38:53;;;;;;;2.90;1.90;;;;;;;;;;6367983;27;20405;-75
2022/02/07 07:41:57;;;;;;;3.25;1.88;;;;;;;;;;6368593;27;20042;-75
2022/02/07 07:45:19;;;;;;;4.07;1.70;;;;;;;;;;6369006;27;20051;-74
2022/02/07 07:48:48;;;;;;;3.20;1.80;;;;;;;;;;6369830;27;20046;-74
2022/02/07 07:52:15;;;;;;;2.47;1.92;;;;;;;;;;6368681;27;20092;-74
2022/02/07 08:02:14;;;;;;;3.35;1.65;;;;;;;;;;6368293;27;20047;-73
2022/02/07 08:05:27;;;;;;;3.38;1.63;;;;;;;;;;6367290;27;20047;-74
2022/02/07 08:08:37;;;;;;;3.67;1.38;;;;;;;;;;6367741;27;20051;-73
2022/02/07 08:11:42;;;;;;;1.75;0.70;;;;;;;;;;6367786;27;20481;-74
2022/02/07 08:14:45;;;;;;;1.23;0.65;;;;;;;;;;6366428;27;20047;-74
2022/02/07 08:18:04;;;;;;;5.63;1.00;;;;;;;;;;6366844;27;20047;-74
2022/02/07 08:21:08;;;;;;;0.50;0.50;;;;;;;;;;6368764;27;20050;-75
2022/02/07 08:24:12;;;;;;;0.63;0.40;;;;;;;;;;6369412;27;20078;-75
2022/02/07 08:27:15;;;;;;;0.50;0.30;;;;;;;;;;6367990;27;20111;-75
2022/02/07 08:30:21;;;;;;;0.60;0.50;;;;;;;;;;6368679;27;20043;-74
2022/02/07 08:33:24;;;;;;;0.40;0.40;;;;;;;;;;6367144;27;20082;-75
2022/02/07 08:36:29;;;;;;;0.98;0.70;;;;;;;;;;6366917;27;20126;-74
2022/02/07 08:39:33;;;;;;;1.23;0.40;;;;;;;;;;6368008;27;20047;-75
2022/02/07 08:42:38;;;;;;;0.93;0.55;;;;;;;;;;6350503;27;20046;-74
2022/02/07 08:45:42;;;;;;;0.55;0.50;;;;;;;;;;6368707;27;20031;-73
2022/02/07 08:48:47;;;;;;;;;;;;;;;;;;6366638;27;20050;-75
2022/02/07 08:51:52;;;;;;;0.75;0.70;;;;;;;;;;6368575;27;19923;-75
2022/02/07 08:54:57;;;;;;;1.00;0.70;;;;;;;;;;6367824;27;20115;-75
2022/02/07 08:58:24;;;;;;;1.95;1.33;;;;;;;;;;6367744;27;20051;-74
2022/02/07 09:01:28;;;;;;;1.00;0.68;;;;;;;;;;6366125;27;20449;-74
2022/02/07 09:04:45;;;;;;;0.70;0.70;;;;;;;;;;6366370;27;20134;-74
2022/02/07 09:08:03;;;;;;;1.65;0.60;;;;;;;;;;6368087;27;20047;-74
2022/02/07 09:11:08;;;;;;;0.60;0.50;;;;;;;;;;6364612;27;20132;-75
2022/02/07 09:14:19;;;;;;;1.15;0.65;;;;;;;;;;6364751;27;20054;-74
2022/02/07 09:17:22;;;;;;;2.22;0.95;;;;;;;;;;6366127;27;20049;-75
2022/02/07 09:20:29;;;;;;;2.00;0.50;;;;;;;;;;6365746;27;20046;-75
2022/02/07 09:23:38;;;;;;;0.65;0.55;;;;;;;;;;6361715;28;20055;-75
2022/02/07 09:26:42;;;;;;;1.52;0.43;;;;;;;;;;6367222;27;20039;-76
2022/02/07 09:29:47;;;;;;;8.55;3.05;;;;;;;;;;6368306;27;20047;-76
2022/02/07 09:32:50;;;;;;;1.10;0.77;;;;;;;;;;6369856;27;20039;-75
2022/02/07 09:35:54;;;;;;;0.75;0.50;;;;;;;;;;6353750;27;20057;-75
2022/02/07 09:38:59;;;;;;;1.10;0.40;;;;;;;;;;6372206;27;20397;-76
2022/02/07 09:42:03;;;;;;;0.68;0.60;;;;;;;;;;6372702;27;20051;-75
2022/02/07 09:45:14;;;;;;;40.10;19.48;;;;;;;;;;6371705;27;20284;-76
2022/02/07 09:48:20;;;;;;;2.95;1.25;;;;;;;;;;6372932;27;20610;-75
2022/02/07 09:51:23;;;;;;;2.03;0.55;;;;;;;;;;6370844;27;20557;-76
2022/02/07 09:54:31;;;;;;;1.45;0.60;;;;;;;;;;6371869;27;20051;-76
2022/02/07 09:57:34;;;;;;;3.72;0.70;;;;;;;;;;6370503;27;20051;-76
2022/02/07 10:00:40;;;;;;;1.30;0.80;;;;;;;;;;6371989;27;20042;-76
2022/02/07 10:03:52;;;;;;;2.38;0.68;;;;;;;;;;6370554;27;20546;-76
2022/02/07 10:06:59;;;;;;;6.05;1.27;;;;;;;;;;6369598;27;20039;-76
2022/02/07 10:10:22;;;;;;;1.98;0.65;;;;;;;;;;6370700;27;20043;-76
2022/02/07 10:13:39;;;;;;;1.50;0.60;;;;;;;;;;6370122;27;20027;-76
2022/02/07 10:16:52;;;;;;;0.77;0.75;;;;;;;;;;6370752;27;20054;-76
2022/02/07 10:20:11;;;;;;;1.00;0.80;;;;;;;;;;6369190;27;20794;-77
2022/02/07 10:40:30;;;;;;;2.05;1.08;;;;;;;;;;6371086;27;20071;-77
2022/02/07 10:47:21;;;;;;;3.35;1.13;;;;;;;;;;6369430;27;20186;-76
2022/02/07 10:50:27;;;;;;;2.80;0.95;;;;;;;;;;6368781;27;20614;-76
2022/02/07 10:53:30;;;;;;;2.72;1.02;;;;;;;;;;6370880;27;20482;-75
2022/02/07 10:56:37;;;;;;;3.03;1.35;;;;;;;;;;6370710;27;20059;-77
2022/02/07 10:59:42;;;;;;;2.03;1.08;;;;;;;;;;6368694;27;20047;-77
2022/02/07 11:02:53;;;;;;;5.28;3.15;;;;;;;;;;6370140;27;20043;-82
2022/02/07 11:06:00;;;;;;;2.15;1.10;;;;;;;;;;6369881;27;20558;-79
2022/02/07 11:09:26;;;;;;;1.85;0.80;;;;;;;;;;6369408;27;20043;-78
2022/02/07 11:12:55;;;;;;;2.17;1.17;;;;;;;;;;6369579;27;20046;-78
2022/02/07 11:16:10;;;;;;;2.33;0.90;;;;;;;;;;6368120;27;20050;-76
2022/02/07 11:23:14;;;;;;;4.75;0.80;;;;;;;;;;6365459;27;20247;-77
2022/02/07 11:26:28;;;;;;;2.92;0.73;;;;;;;;;;6367523;27;20047;-76
2022/02/07 11:29:38;;;;;;;1.15;0.68;;;;;;;;;;6364781;27;20489;-77
2022/02/07 11:33:06;;;;;;;1.02;0.52;;;;;;;;;;6365714;27;20065;-78
2022/02/07 11:36:13;;;;;;;2.92;0.50;;;;;;;;;;6367941;27;20051;-76
2022/02/07 11:39:17;;;;;;;1.85;0.82;;;;;;;;;;6369806;27;20039;-76
2022/02/07 11:42:21;;;;;;;2.58;0.30;;;;;;;;;;6368984;27;20039;-76
2022/02/07 11:45:24;;;;;;;0.88;0.50;;;;;;;;;;6368105;27;20043;-77
2022/02/07 11:48:33;;;;;;;0.43;0.43;;;;;;;;;;6369231;27;20050;-77
2022/02/07 11:51:39;;;;;;;2.53;0.55;;;;;;;;;;6368716;27;20043;-76
2022/02/07 11:54:44;;;;;;;3.92;1.85;;;;;;;;;;6367963;27;20042;-75
2022/02/07 11:57:54;;;;;;;4.93;2.40;;;;;;;;;;6368016;27;20093;-79
2022/02/07 12:00:59;;;;;;;1.08;0.60;;;;;;;;;;6367713;27;20311;-79
2022/02/07 12:04:08;;;;;;;0.70;0.50;;;;;;;;;;6368061;27;20047;-79
2022/02/07 12:07:30;;;;;;;2.83;0.70;;;;;;;;;;6367992;27;20047;-79
2022/02/07 12:10:39;;;;;;;1.00;0.60;;;;;;;;;;6367293;27;20520;-79
2022/02/07 12:13:43;;;;;;;1.73;0.60;;;;;;;;;;6367199;27;20054;-79
2022/02/07 12:16:47;;;;;;;1.58;0.52;;;;;;;;;;6366491;27;20050;-79
2022/02/07 12:20:04;;;;;;;2.47;0.65;;;;;;;;;;6366729;27;20042;-79
2022/02/07 12:23:08;;;;;;;3.75;0.70;;;;;;;;;;6368300;27;20054;-80
2022/02/07 12:26:16;;;;;;;2.28;0.93;;;;;;;;;;6366653;27;20043;-78
2022/02/07 12:29:47;;;;;;;4.68;0.80;;;;;;;;;;6364541;27;20043;-78
2022/02/07 12:32:48;;;;;;;;;;;;;;;;;;6364575;27;20368;-78
2022/02/07 12:35:57;;;;;;;1.33;0.70;;;;;;;;;;6365552;27;20364;-76
2022/02/07 12:39:01;;;;;;;4.15;0.70;;;;;;;;;;6362743;27;20054;-78
2022/02/07 12:42:08;;;;;;;2.00;0.50;;;;;;;;;;6366740;27;20053;-78
2022/02/07 12:45:12;;;;;;;1.90;1.00;;;;;;;;;;6366775;27;20417;-78
2022/02/07 12:48:21;;;;;;;2.33;0.63;;;;;;;;;;6367569;27;20126;-78
2022/02/07 12:51:28;;;;;;;4.07;1.02;;;;;;;;;;6366832;27;20047;-77
2022/02/07 12:54:36;;;;;;;1.20;0.80;;;;;;;;;;6367817;27;20393;-76
2022/02/07 12:57:40;;;;;;;2.25;0.60;;;;;;;;;;6366440;27;20058;-77
2022/02/07 13:00:43;;;;;;;3.15;0.52;;;;;;;;;;6366564;27;20118;-77
2022/02/07 13:03:51;;;;;;;4.00;0.75;;;;;;;;;;6366361;27;20051;-74
2022/02/07 13:06:56;;;;;;;1.08;0.60;;;;;;;;;;6366195;27;20393;-74
2022/02/07 13:09:59;;;;;;;0.60;0.50;;;;;;;;;;6365648;27;20039;-75
2022/02/07 13:13:20;;;;;;;2.55;0.82;;;;;;;;;;6367118;27;20134;-75
2022/02/07 13:16:33;;;;;;;1.17;0.55;;;;;;;;;;6367413;27;20043;-75
2022/02/07 13:19:40;;;;;;;1.50;0.75;;;;;;;;;;6365658;28;20112;-76
2022/02/07 13:22:45;;;;;;;1.27;1.03;;;;;;;;;;6366549;27;20496;-76
2022/02/07 13:25:51;;;;;;;0.73;0.60;;;;;;;;;;6363227;28;20124;-75
2022/02/07 13:28:58;;;;;;;2.70;0.88;;;;;;;;;;6364540;27;20035;-76
2022/02/07 13:32:02;;;;;;;4.50;0.70;;;;;;;;;;6346530;28;20472;-75
2022/02/07 13:35:07;;;;;;;4.05;0.77;;;;;;;;;;6364658;27;20039;-75
2022/02/07 13:38:12;;;;;;;1.17;0.43;;;;;;;;;;6364948;27;20046;-76
2022/02/07 13:41:20;;;;;;;1.98;0.73;;;;;;;;;;6365800;28;20043;-76
2022/02/07 13:44:23;;;;;;;3.05;1.08;;;;;;;;;;6364948;28;20058;-77
2022/02/07 13:47:28;;;;;;;5.57;0.90;;;;;;;;;;6365952;28;20039;-77
2022/02/07 13:50:36;;;;;;;0.87;0.63;;;;;;;;;;6366745;27;20041;-75
2022/02/07 13:53:43;;;;;;;2.28;1.02;;;;;;;;;;6365552;28;20657;-77
2022/02/07 13:56:46;;;;;;;1.10;0.50;;;;;;;;;;6348379;28;20479;-79
2022/02/07 13:59:50;;;;;;;1.20;0.90;;;;;;;;;;6365338;28;20295;-78
2022/02/07 14:03:07;;;;;;;3.58;0.90;;;;;;;;;;6365689;28;20051;-77
2022/02/07 14:06:17;;;;;;;1.90;0.98;;;;;;;;;;6366093;27;20046;-77
2022/02/07 14:09:27;;;;;;;2.25;0.73;;;;;;;;;;6365437;28;20473;-76
2022/02/07 14:12:30;;;;;;;4.43;0.80;;;;;;;;;;6369567;27;20058;-75
2022/02/07 14:15:34;;;;;;;3.00;0.90;;;;;;;;;;6371622;27;20425;-74
2022/02/07 14:18:45;;;;;;;;;;;;;;;;;;6371321;27;20565;-74
2022/02/07 14:21:48;;;;;;;1.17;0.70;;;;;;;;;;6369931;27;19926;-75
2022/02/07 14:24:53;;;;;;;2.70;1.30;;;;;;;;;;6369842;27;20045;-74
2022/02/07 14:27:56;;;;;;;2.53;0.90;;;;;;;;;;6370108;27;20043;-74
2022/02/07 14:31:00;;;;;;;1.20;1.05;;;;;;;;;;6369969;27;20076;-75
2022/02/07 14:34:06;;;;;;;1.65;1.00;;;;;;;;;;6370624;27;20058;-75
2022/02/07 14:37:10;;;;;;;1.30;0.60;;;;;;;;;;6369783;27;20092;-75
2022/02/07 14:40:15;;;;;;;2.08;1.00;;;;;;;;;;6368792;27;20522;-76
2022/02/07 14:43:27;;;;;;;2.22;1.00;;;;;;;;;;6369475;27;20377;-75
2022/02/07 14:46:34;;;;;;;1.88;0.93;;;;;;;;;;6370762;27;20172;-76
2022/02/07 14:49:43;;;;;;;3.70;1.10;;;;;;;;;;6369857;27;20051;-76
2022/02/07 14:52:46;;;;;;;5.90;0.90;;;;;;;;;;6369463;27;20035;-76
2022/02/07 14:55:51;;;;;;;0.77;0.73;;;;;;;;;;6369575;27;20046;-75
2022/02/07 14:58:57;;;;;;;2.60;1.00;;;;;;;;;;6367742;27;20059;-75
2022/02/07 15:02:00;;;;;;;4.07;1.33;;;;;;;;;;6368658;27;20047;-76
2022/02/07 15:05:03;;;;;;;1.58;0.80;;;;;;;;;;6370334;27;20397;-75
2022/02/07 15:08:07;;;;;;;2.63;1.40;;;;;;;;;;6370599;27;20047;-74
2022/02/07 15:11:12;;;;;;;;;;;;;;;;;;6369895;27;20050;-75
2022/02/07 15:14:17;;;;;;;3.80;0.80;;;;;;;;;;6370456;27;19952;-74
2022/02/07 15:17:24;;;;;;;3.25;1.48;;;;;;;;;;6369941;27;20481;-74
2022/02/07 15:20:28;;;;;;;1.70;0.90;;;;;;;;;;6369505;27;20058;-73
2022/02/07 15:23:33;;;;;;;2.22;1.05;;;;;;;;;;6367877;27;20480;-74
2022/02/07 15:26:37;;;;;;;;;;;;;;;;;;6368606;27;20039;-74
2022/02/07 15:29:44;;;;;;;3.80;1.23;;;;;;;;;;6369676;27;19985;-74
2022/02/07 15:32:51;;;;;;;1.48;0.80;;;;;;;;;;6368730;27;20054;-74
2022/02/07 15:35:54;;;;;;;1.33;0.63;;;;;;;;;;6368506;27;20561;-74
2022/02/07 15:38:59;;;;;;;1.30;0.93;;;;;;;;;;6368040;27;20043;-74
2022/02/07 15:42:03;;;;;;;1.85;1.00;;;;;;;;;;6367502;27;20042;-74
2022/02/07 15:45:09;;;;;;;1.92;0.85;;;;;;;;;;6367714;27;20039;-74
2022/02/07 15:48:14;;;;;;;3.22;1.08;;;;;;;;;;6367611;27;20156;-74
2022/02/07 15:51:18;;;;;;;4.05;1.00;;;;;;;;;;6367820;27;20512;-74
2022/02/07 15:54:24;;;;;;;1.45;0.93;;;;;;;;;;6366837;27;20050;-73
2022/02/07 15:57:28;;;;;;;3.05;0.90;;;;;;;;;;6368940;27;20382;-74
2022/02/07 16:00:32;;;;;;;3.85;1.20;;;;;;;;;;6367568;27;20046;-74
2022/02/07 16:03:36;;;;;;;3.63;1.17;;;;;;;;;;6368416;27;20039;-74
2022/02/07 16:06:40;;;;;;;1.20;0.93;;;;;;;;;;6369223;27;20133;-74
2022/02/07 16:09:46;;;;;;;1.48;0.80;;;;;;;;;;6368564;27;20493;-74
2022/02/07 16:12:49;;;;;;;0.85;0.68;;;;;;;;;;6368540;27;20071;-74
2022/02/07 16:15:54;;;;;;;2.28;0.85;;;;;;;;;;6366876;27;20042;-74
2022/02/07 16:18:57;;;;;;;1.75;0.90;;;;;;;;;;6368664;27;20125;-75
2022/02/07 16:22:00;;;;;;;4.47;0.77;;;;;;;;;;6367032;27;20120;-77
2022/02/07 16:25:03;;;;;;;4.32;1.05;;;;;;;;;;6366561;27;20067;-74
2022/02/07 16:28:07;;;;;;;4.47;0.90;;;;;;;;;;6368946;27;20051;-75
2022/02/07 16:31:11;;;;;;;3.25;0.95;;;;;;;;;;6368225;27;20071;-74
2022/02/07 16:34:18;;;;;;;2.28;0.95;;;;;;;;;;6366640;27;20051;-75
2022/02/07 16:37:22;;;;;;;1.73;1.00;;;;;;;;;;6367583;27;20051;-75
2022/02/07 16:40:26;;;;;;;2.13;0.85;;;;;;;;;;6366749;27;20421;-75
2022/02/07 16:43:36;;;;;;;1.70;0.95;;;;;;;;;;6366713;27;20508;-74
2022/02/07 16:46:50;;;;;;;2.83;1.58;;;;;;;;;;6366035;27;20555;-73
2022/02/07 16:49:54;;;;;;;3.45;1.45;;;;;;;;;;6367046;27;20120;-74
2022/02/07 16:52:57;;;;;;;1.50;0.98;;;;;;;;;;6367835;27;20475;-75
2022/02/07 16:56:00;;;;;;;1.60;1.05;;;;;;;;;;6367622;27;20043;-74
2022/02/07 16:59:03;;;;;;;2.42;1.48;;;;;;;;;;6367376;27;20055;-74
2022/02/07 17:02:08;;;;;;;2.05;1.00;;;;;;;;;;6367705;27;20047;-75
2022/02/07 17:05:11;;;;;;;5.65;1.17;;;;;;;;;;6368069;27;20051;-74
2022/02/07 17:08:14;;;;;;;3.75;1.13;;;;;;;;;;6367036;27;20119;-74
2022/02/07 17:11:20;;;;;;;2.70;1.20;;;;;;;;;;6368037;27;20433;-75
2022/02/07 17:14:26;;;;;;;2.17;1.25;;;;;;;;;;6366010;27;20095;-74
2022/02/07 17:17:32;;;;;;;2.42;1.20;;;;;;;;;;6367135;27;20047;-75
2022/02/07 17:20:35;;;;;;;2.92;1.20;;;;;;;;;;6367275;28;20172;-75
2022/02/07 17:23:41;;;;;;;1.88;0.98;;;;;;;;;;6365954;28;20043;-74
2022/02/07 17:26:44;;;;;;;4.05;1.50;;;;;;;;;;6366299;28;20120;-76
2022/02/07 17:29:48;;;;;;;1.65;0.98;;;;;;;;;;6365424;28;20043;-76
2022/02/07 17:32:54;;;;;;;2.53;1.42;;;;;;;;;;6367637;27;20126;-76
2022/02/07 17:36:01;;;;;;;4.85;1.77;;;;;;;;;;6367561;27;20050;-76
2022/02/07 17:39:06;;;;;;;2.33;1.20;;;;;;;;;;6365757;28;20485;-77
2022/02/07 17:42:09;;;;;;;1.88;1.33;;;;;;;;;;6367564;27;20047;-76
2022/02/07 17:45:13;;;;;;;2.05;1.45;;;;;;;;;;6365848;28;20054;-74
2022/02/07 17:48:17;;;;;;;2.45;1.40;;;;;;;;;;6371654;27;20481;-76
2022/02/07 17:51:21;;;;;;;4.07;1.52;;;;;;;;;;6370801;27;20059;-76
2022/02/07 17:54:26;;;;;;;3.40;1.60;;;;;;;;;;6372815;27;20039;-76
2022/02/07 17:57:29;;;;;;;2.53;1.50;;;;;;;;;;6372292;27;20134;-78
2022/02/07 18:00:33;;;;;;;2.15;1.20;;;;;;;;;;6370021;27;20051;-77
2022/02/07 18:03:40;;;;;;;1.88;1.38;;;;;;;;;;6371514;27;20087;-79
2022/02/07 18:06:43;;;;;;;2.28;1.27;;;;;;;;;;6370604;27;20506;-79
2022/02/07 18:09:46;;;;;;;2.42;1.20;;;;;;;;;;6370696;27;20065;-77
2022/02/07 18:12:52;;;;;;;3.35;1.40;;;;;;;;;;6370996;27;20039;-76
2022/02/07 18:15:57;;;;;;;3.17;1.10;;;;;;;;;;6370486;27;20047;-76
2022/02/07 18:19:03;;;;;;;2.03;1.15;;;;;;;;;;6371913;27;20524;-78
2022/02/07 18:22:09;;;;;;;3.63;1.20;;;;;;;;;;6370766;27;20047;-77
2022/02/07 18:25:13;;;;;;;1.67;0.93;;;;;;;;;;6354498;27;20078;-75
2022/02/07 18:28:17;;;;;;;4.32;1.13;;;;;;;;;;6369971;27;20073;-75
2022/02/07 18:31:20;;;;;;;2.42;0.98;;;;;;;;;;6369449;27;20521;-75
2022/02/07 18:34:38;;;;;;;2.17;1.08;;;;;;;;;;6352769;27;20149;-74
2022/02/07 18:37:45;;;;;;;2.85;1.30;;;;;;;;;;6366972;27;20047;-73
2022/02/07 18:40:52;;;;;;;3.90;1.20;;;;;;;;;;6369972;27;20534;-75
2022/02/07 18:43:56;;;;;;;1.75;0.93;;;;;;;;;;6368855;27;20043;-73
2022/02/07 18:46:59;;;;;;;3.25;1.13;;;;;;;;;;6370106;27;20095;-73
2022/02/07 18:50:03;;;;;;;2.63;1.40;;;;;;;;;;6370873;27;20047;-74
2022/02/07 18:53:07;;;;;;;2.53;0.90;;;;;;;;;;6369124;27;20039;-73
2022/02/07 18:56:13;;;;;;;4.82;1.50;;;;;;;;;;6369489;27;20092;-73
2022/02/07 18:59:20;;;;;;;2.15;1.30;;;;;;;;;;6368198;27;20099;-73
2022/02/07 19:02:29;;;;;;;3.45;1.83;;;;;;;;;;6369537;27;20058;-75
2022/02/07 19:05:49;;;;;;;2.95;0.93;;;;;;;;;;6370168;27;20043;-73
2022/02/07 19:08:55;;;;;;;2.40;1.20;;;;;;;;;;6369567;27;20474;-73
2022/02/07 19:12:01;;;;;;;3.78;1.60;;;;;;;;;;6368865;27;20047;-74
2022/02/07 19:15:12;;;;;;;4.88;1.33;;;;;;;;;;6369927;27;20047;-75
2022/02/07 19:18:17;;;;;;;4.90;2.17;;;;;;;;;;6369823;27;20039;-75
2022/02/07 19:21:21;;;;;;;4.25;1.65;;;;;;;;;;6369734;27;20051;-73
2022/02/07 19:24:36;;;;;;;7.18;2.13;;;;;;;;;;6369352;27;20126;-74
2022/02/07 19:27:49;;;;;;;4.55;1.30;;;;;;;;;;6370384;27;20485;-73
2022/02/07 19:31:00;;;;;;;3.53;1.40;;;;;;;;;;6368690;27;20043;-76
2022/02/07 19:34:15;;;;;;;9.23;2.20;;;;;;;;;;6370079;27;20047;-78
2022/02/07 19:37:19;;;;;;;4.55;1.50;;;;;;;;;;6370136;27;20051;-76
2022/02/07 19:40:25;;;;;;;5.90;1.58;;;;;;;;;;6369420;27;20051;-79
2022/02/07 19:43:34;;;;;;;5.22;1.80;;;;;;;;;;6368830;27;20047;-77
2022/02/07 19:46:39;;;;;;;6.40;1.60;;;;;;;;;;6369701;27;20047;-77
2022/02/07 19:49:42;;;;;;;5.38;1.70;;;;;;;;;;6368937;27;20031;-78
2022/02/07 19:52:51;;;;;;;3.40;1.83;;;;;;;;;;6352492;27;20375;-77
2022/02/07 19:55:57;;;;;;;5.32;2.05;;;;;;;;;;6369287;27;20039;-80
2022/02/07 19:59:01;;;;;;;4.18;1.52;;;;;;;;;;6368523;27;20057;-76
2022/02/07 20:02:04;;;;;;;6.63;2.03;;;;;;;;;;6367170;27;20050;-75
2022/02/07 20:05:12;;;;;;;6.75;1.80;;;;;;;;;;6368555;27;20046;-74
2022/02/07 20:08:16;;;;;;;4.78;2.35;;;;;;;;;;6369499;27;20039;-75